الصفحة الرئيسية
METAR-TAF:

METAR-TAF

مطار :

باماكو, مالي

مطار باماكو موديبو كيتا الدولي

دائرة عرض: 12-32N, خط طول: 007-57W, ارتفاع: 380 متر

مراقبة الطقس الحالي

تاريخ ووقت الإصدار 21 دقيقة قبل الساعة 08:00UTC
رياح هادئة
درجة الحرارة 24°درجة مئوية
الرطوبة 34%
ضغط 1009 hPa
الرؤية: 8000 متر

METAR: GABS 220800Z 00000KT 8000 NSC 24/07 Q1009 NOSIG

زمن: 08:21 (08:21 UTC)

توقعات

تاريخ ووقت الإصدار 2ساعات و 56 دقيقة قبل الساعة 05:25UTC
التوقعات صالحة من22 الساعة 06 UTC إلى 23 الساعة 12 UTC
ريح 8 عقدة من الجنوب/الجنوب الغربي
الرؤية: 8000 متر
غيوم قليلة على ارتفاع 4000 قدم

TAF: GABS 220525Z 2206/2312 20008KT 8000 FEW040

أرصاد الطقس والتوقعات من أكثر من 4000 مطار (تقارير الطقس للمطار METAR والتنبؤ بالطقس بالمطارTAF).

المحطات المتاحة هي النقط الصفراء والحمراء على الخريطة.

حرك المؤشر فوق النقطة لمعرفة اسم المحطة.

ثم انقر لمعرفة أرصاد وتوقعات الطقس.

لتغيير الخارطة: اضغط على الأزرار الخضراء مع رمز الصليب الأسود للتكبير. على الزر الأخضر مع شرطة للتصغير، أو على الأسهم الخضراء للخرائط المجاورة.


METAR-TAF: